Main page
METAR-TAF:

METAR-TAF

Airports :

Jaipur International Airport

Jaipur, India

latitude: 26-49N, longitude: 075-48E, elevation: 385 m

Current weather observation

The report was made 2 hours and 13 minutes ago, at 03:30 UTC
Wind 12 kt from the West/Northwest
Temperature 27°C
Humidity 84%
Pressure 1008 hPa
Visibility: 4000 m
Few clouds at a height of 10000 ft
haze

METAR: VIJP 250330Z 29012KT 4000 HZ FEW100 27/24 Q1008 NOSIG

Time: 11:13 (05:43 UTC)

Forecast

The report was made 3 hours and 43 minutes ago, at 02:00 UTC
Forecast valid from 25 at 03 UTC to 25 at 12 UTC
Wind 10 kt from the West
Visibility: 3000 m
Few clouds at a height of 10000 ft
haze, mist
Becoming
from 25 at 05 UTC to 25 at 07 UTC
Visibility: 5000 m
haze

TAF: VIJP 250200Z 2503/2512 27010KT 3000 HZ BR FEW100 BECMG 2505/2507 5000 HZ

Weather observations and forecasts of more than 4000 airports (METAR and TAF reports).

The available stations are represented by yellow and red dots on the map.

Hover mouse over dot to see the name of the station.

Then click to see weather observations and forecasts.

To change the map : click on the green buttons with a black cross to zoom in, on the green button with a dash to zoom out, or on the green arrows for adjacent maps.


METAR-TAF: